Αναφορές Αεροδρομίων

 

KSJC - San Jose, California, USA
Distance from station: ΒΑ 14km
Ενημερώθηκε: 26/05/2024 14:53
Αίθριος
Αίθριος
 Ανεμος από calm
Ανεμος: Απνοια
Θερμοκρασία: 10°C
Σημείο Δρόσου: 6°C
Υγρασία: 76%
Βαρόμετρο: 1016.9 hPa
Clouds: Αίθριος
Visibility: 16 km
2024/05/26 11:53 KSJC 261153Z AUTO 00000KT 10SM CLR 10/06 A3003 RMK AO2 SLP170 T01000061 10128 20100 56005
KNUQ - Moffett Nas/Mtn, California, USA
Distance from station: Β 14km
Ενημερώθηκε: 26/05/2024 15:15
Λίγα Σύννεφα
Λίγα Σύννεφα
 Ανεμος από calm
Ανεμος: Απνοια
Θερμοκρασία: 9°C
Σημείο Δρόσου: 6°C
Υγρασία: 82%
Βαρόμετρο: 1017.3 hPa
Clouds: Λίγα Σύννεφα
Visibility: 14 km
Cloud details: Λίγα Σύννεφα 945 m
2024/05/26 12:15 KNUQ 261215Z AUTO 00000KT 9SM FEW031 09/06 A3004 RMK AO2
 
KPAO - Palo Alto, California, USA
Distance from station: ΒΒΔ 23km
Ενημερώθηκε: 26/05/2024 06:47
NOT Current
Λίγα Σύννεφα
Λίγα Σύννεφα
 Ανεμος από ΔΒΔ
Ανεμος: ΔΒΔ 17 km/h
Θερμοκρασία: 12°C
Σημείο Δρόσου: 6°C
Υγρασία: 67%
Βαρόμετρο: 1017.9 hPa
Clouds: Λίγα Σύννεφα
Visibility: 16 km
Cloud details: Λίγα Σύννεφα 914 m
2024/05/26 03:47 KPAO 260347Z 29009KT 10SM FEW030 12/06 A3006 RMK LAST
KRHV - San Jose/Reid, California, USA
Distance from station: ΑΒΑ 19km
Ενημερώθηκε: 26/05/2024 07:55
NOT Current
Αίθριος
Αίθριος
 Ανεμος από calm
Ανεμος: Απνοια
Θερμοκρασία: 12°C
Σημείο Δρόσου: 8°C
Υγρασία: 77%
Βαρόμετρο: 1017.6 hPa
Clouds: Αίθριος
Visibility: 16 km
2024/05/26 04:55 KRHV 260455Z 00000KT 10SM SKC 12/08 A3005 RMK WIND VELOCITY AND DIRECTION ESTIMATED DUE TO EQUIPMENT OUTAGE. USING SJC ALTIMETER SETTINGS **LAST
 
KOAK - Oakland, California, USA
Distance from station: ΒΒΔ 50km
Ενημερώθηκε: 26/05/2024 14:53
Σχεδόν νεφελώδης
Σχεδόν νεφελώδης
 Ανεμος από ΔΝΔ
Ανεμος: ΔΝΔ 9 km/h
Θερμοκρασία: 11°C
Σημείο Δρόσου: 8°C
Υγρασία: 82%
Βαρόμετρο: 1017.6 hPa
Clouds: Σχεδόν νεφελώδης
Visibility: 16 km
Cloud details: Σχεδόν νεφελώδης 457 m
2024/05/26 11:53 KOAK 261153Z 24005KT 10SM BKN015 11/08 A3005 RMK AO2 SLP174 T01060083 10117 20106 56006
KSQL - San Carlos Airpo, California, USA
Distance from station: ΒΔ 34km
Ενημερώθηκε: 26/05/2024 15:15
Αίθριος
Αίθριος
 Ανεμος από calm
Ανεμος: Απνοια
Θερμοκρασία: 9°C
Σημείο Δρόσου: 7°C
Υγρασία: 87%
Βαρόμετρο: 1017.6 hPa
Clouds: Αίθριος
Visibility: 14 km
2024/05/26 12:15 KSQL 261215Z AUTO 00000KT 9SM CLR 09/07 A3005 RMK AO2
 
KSFO - San Francisco, California, USA
Distance from station: ΒΔ 49km
Ενημερώθηκε: 26/05/2024 15:17
Μερικώς νεφελώδης
Μερικώς νεφελώδης
 Ανεμος από ΝΝΔ
Ανεμος: ΝΝΔ 6 km/h
Θερμοκρασία: 11°C
Σημείο Δρόσου: 7°C
Υγρασία: 77%
Βαρόμετρο: 1016.9 hPa
Clouds: Μερικώς νεφελώδης
Visibility: 16 km
Cloud details: Λίγα Σύννεφα 244 m
Μερικώς νεφελώδης 396 m
2024/05/26 12:17 KSFO 261217Z 21003KT 10SM FEW008 SCT013 11/07 A3003 RMK AO2 T01110072
KE16 - San Martin, California, USA
Distance from station: ΑΝΑ 43km
Ενημερώθηκε: 26/05/2024 15:15
Σχεδόν νεφελώδης
Σχεδόν νεφελώδης
 Ανεμος από calm
Ανεμος: Απνοια
Θερμοκρασία: 7°C
Σημείο Δρόσου: 6°C
Υγρασία: 93%
Βαρόμετρο: 1018.3 hPa
Clouds: Σχεδόν νεφελώδης
Visibility: 16 km
Cloud details: Σχεδόν νεφελώδης 488 m
2024/05/26 12:15 KE16 261215Z AUTO 00000KT 10SM BKN016 07/06 A3007 RMK AO2
 
KWVI - Watsonville, California, USA
Distance from station: ΝΝΑ 44km
Ενημερώθηκε: 26/05/2024 14:53
Συννεφιά
Συννεφιά
 Ανεμος από calm
Ανεμος: Απνοια
Θερμοκρασία: 10°C
Σημείο Δρόσου: 8°C
Υγρασία: 88%
Βαρόμετρο: 1017.6 hPa
Clouds: Συννεφιά
Visibility: 16 km
Cloud details: Συννεφιά 366 m
2024/05/26 11:53 KWVI 261153Z AUTO 00000KT 10SM OVC012 10/08 A3005 RMK AO2 SLP175 T01000078 10106 20089 56002
KHAF - Half Moon Bay, California, USA
Distance from station: ΔΒΔ 50km
Ενημερώθηκε: 26/05/2024 15:15
Συννεφιά
Συννεφιά
 Ανεμος από calm
Ανεμος: Απνοια
Θερμοκρασία: 10°C
Σημείο Δρόσου: 9°C
Υγρασία: 94%
Βαρόμετρο: 1017.6 hPa
Clouds: Συννεφιά
Visibility: 11 km
Cloud details: Συννεφιά 366 m
2024/05/26 12:15 KHAF 261215Z AUTO 00000KT 7SM OVC012 10/09 A3005 RMK AO2
 
KHWD - Hayward, California, USA
Distance from station: Β 44km
Ενημερώθηκε: 26/05/2024 14:54
Συννεφιά
Συννεφιά
 Ανεμος από calm
Ανεμος: Απνοια
Θερμοκρασία: 12°C
Σημείο Δρόσου: 8°C
Υγρασία: 77%
Βαρόμετρο: 1016.9 hPa
Clouds: Συννεφιά
Visibility: 16 km
Cloud details: Συννεφιά 488 m
2024/05/26 11:54 KHWD 261154Z AUTO 00000KT 10SM OVC016 12/08 A3003 RMK AO2 SLP178 T01220078 10128 20117 58003
KLVK - Livermore, California, USA
Distance from station: ΒΒΑ 51km
Ενημερώθηκε: 26/05/2024 14:53
Αίθριος
Αίθριος
 Ανεμος από Α
Ανεμος: Α 6 km/h
Θερμοκρασία: 8°C
Σημείο Δρόσου: 6°C
Υγρασία: 87%
Βαρόμετρο: 1016.9 hPa
Clouds: Αίθριος
Visibility: 16 km
2024/05/26 11:53 KLVK 261153Z AUTO 08003KT 10SM CLR 08/06 A3003 RMK AO2 SLP165 T00830061 10100 20083 56004